JBU2606 TJSJ-TBPB
Flight info
| Callsign | JBU2606 |
|---|---|
| Flight time | 1h 16m |
| Altitude | 35000 |
| Route | JETSS1 COY A555 ILURI UA555 BGI |
| Aircraft | A320/M-SDE3FGHIRWY/LB1 |
Departure
| Time | 2026-04-30 20:55 |
|---|---|
| Airport | Luis Munoz Marin International Airport (TJSJ) |
Arrival
| Time | 2026-04-30 22:11 |
|---|---|
| Airport | Grantley Adams International Airport (TBPB) |
| Time | Latitude | Longitude | Altitude | Speed | Heading |
|---|---|---|---|---|---|
| 2026-04-30 20:39 | 18.43552 | -66.00699 | 17 ft | 0 kts | 359° |
| 2026-04-30 20:45 | 18.43551 | -66.00699 | 17 ft | 2 kts | 359° |
| 2026-04-30 20:45 | 18.43535 | -66.00699 | 19 ft | 2 kts | 359° |
| 2026-04-30 20:46 | 18.43488 | -66.00695 | 18 ft | 2 kts | 320° |
| 2026-04-30 20:46 | 18.43475 | -66.00684 | 17 ft | 2 kts | 300° |
| 2026-04-30 20:47 | 18.43472 | -66.00677 | 17 ft | 0 kts | 272° |
| 2026-04-30 20:50 | 18.43472 | -66.00680 | 17 ft | 1 kts | 271° |
| 2026-04-30 20:50 | 18.43470 | -66.00700 | 18 ft | 4 kts | 262° |
| 2026-04-30 20:50 | 18.43466 | -66.00740 | 17 ft | 7 kts | 266° |
| 2026-04-30 20:51 | 18.43466 | -66.00799 | 17 ft | 9 kts | 269° |
| 2026-04-30 20:51 | 18.43465 | -66.00970 | 17 ft | 14 kts | 271° |
| 2026-04-30 20:51 | 18.43467 | -66.01080 | 17 ft | 16 kts | 270° |
| 2026-04-30 20:52 | 18.43468 | -66.01206 | 17 ft | 18 kts | 269° |
| 2026-04-30 20:52 | 18.43469 | -66.01323 | 17 ft | 14 kts | 280° |
| 2026-04-30 20:52 | 18.43666 | -66.01360 | 17 ft | 18 kts | 360° |
| 2026-04-30 20:53 | 18.43763 | -66.01387 | 17 ft | 16 kts | 311° |
| 2026-04-30 20:53 | 18.43847 | -66.01459 | 17 ft | 13 kts | 342° |
| 2026-04-30 20:53 | 18.43905 | -66.01417 | 18 ft | 5 kts | 66° |
| 2026-04-30 20:54 | 18.43907 | -66.01412 | 19 ft | 5 kts | 66° |
| 2026-04-30 20:54 | 18.44014 | -66.01154 | 17 ft | 81 kts | 67° |
| 2026-04-30 20:54 | 18.44331 | -66.00371 | 20 ft | 148 kts | 67° |
| 2026-04-30 20:55 | 18.45203 | -65.98189 | 1327 ft | 170 kts | 69° |
| 2026-04-30 20:55 | 18.45672 | -65.97000 | 1715 ft | 188 kts | 68° |
| 2026-04-30 20:55 | 18.46217 | -65.95639 | 1941 ft | 210 kts | 69° |
| 2026-04-30 20:56 | 18.47471 | -65.92518 | 2667 ft | 255 kts | 68° |
| 2026-04-30 20:56 | 18.48173 | -65.90770 | 3468 ft | 262 kts | 68° |
| 2026-04-30 20:56 | 18.49619 | -65.87190 | 5171 ft | 269 kts | 66° |
| 2026-04-30 20:57 | 18.50359 | -65.85362 | 5996 ft | 273 kts | 66° |
| 2026-04-30 20:57 | 18.51113 | -65.83499 | 6702 ft | 280 kts | 66° |
| 2026-04-30 20:57 | 18.51842 | -65.81701 | 7355 ft | 285 kts | 67° |
| 2026-04-30 20:58 | 18.53427 | -65.77782 | 8766 ft | 295 kts | 68° |
| 2026-04-30 20:58 | 18.53897 | -65.75667 | 9421 ft | 301 kts | 90° |
| 2026-04-30 20:58 | 18.53546 | -65.73500 | 10075 ft | 303 kts | 114° |
| 2026-04-30 20:58 | 18.52423 | -65.71574 | 10374 ft | 319 kts | 130° |
| 2026-04-30 20:59 | 18.49460 | -65.67758 | 11060 ft | 346 kts | 131° |
| 2026-04-30 20:59 | 18.47914 | -65.65794 | 11641 ft | 351 kts | 131° |
| 2026-04-30 21:00 | 18.44784 | -65.61785 | 12868 ft | 358 kts | 131° |
| 2026-04-30 21:00 | 18.41607 | -65.57673 | 14004 ft | 366 kts | 131° |
| 2026-04-30 21:01 | 18.38365 | -65.53479 | 15039 ft | 372 kts | 131° |
| 2026-04-30 21:01 | 18.36723 | -65.51358 | 15555 ft | 376 kts | 131° |
| 2026-04-30 21:01 | 18.33397 | -65.47062 | 16578 ft | 382 kts | 132° |
| 2026-04-30 21:02 | 18.31710 | -65.44884 | 17084 ft | 385 kts | 132° |
| 2026-04-30 21:02 | 18.30009 | -65.42689 | 17588 ft | 389 kts | 132° |
| 2026-04-30 21:02 | 18.28290 | -65.40473 | 18094 ft | 392 kts | 133° |
| 2026-04-30 21:02 | 18.26563 | -65.38239 | 18555 ft | 395 kts | 133° |
| 2026-04-30 21:03 | 18.24819 | -65.35986 | 18994 ft | 398 kts | 133° |
| 2026-04-30 21:03 | 18.23063 | -65.33718 | 19440 ft | 401 kts | 133° |
| 2026-04-30 21:03 | 18.21292 | -65.31433 | 19892 ft | 404 kts | 133° |
| 2026-04-30 21:03 | 18.19508 | -65.29136 | 20344 ft | 407 kts | 133° |
| 2026-04-30 21:04 | 18.17710 | -65.26821 | 20807 ft | 410 kts | 133° |
| 2026-04-30 21:04 | 18.15907 | -65.24499 | 21253 ft | 412 kts | 134° |
| 2026-04-30 21:04 | 18.12252 | -65.19795 | 22132 ft | 418 kts | 134° |
| 2026-04-30 21:05 | 18.10401 | -65.17420 | 22588 ft | 421 kts | 134° |
| 2026-04-30 21:05 | 18.08538 | -65.15028 | 23015 ft | 424 kts | 134° |
| 2026-04-30 21:05 | 18.06667 | -65.12621 | 23496 ft | 426 kts | 134° |
| 2026-04-30 21:05 | 18.04790 | -65.10209 | 23852 ft | 428 kts | 134° |
| 2026-04-30 21:06 | 18.02891 | -65.07775 | 24185 ft | 432 kts | 134° |
| 2026-04-30 21:06 | 18.00979 | -65.05327 | 24499 ft | 435 kts | 134° |
| 2026-04-30 21:06 | 17.99050 | -65.02857 | 24815 ft | 438 kts | 134° |
| 2026-04-30 21:06 | 17.97136 | -65.00405 | 25121 ft | 442 kts | 134° |
| 2026-04-30 21:07 | 17.95187 | -64.97906 | 25436 ft | 445 kts | 134° |
| 2026-04-30 21:07 | 17.93219 | -64.95375 | 25771 ft | 447 kts | 134° |
| 2026-04-30 21:07 | 17.91246 | -64.92837 | 26079 ft | 450 kts | 134° |
| 2026-04-30 21:07 | 17.89255 | -64.90284 | 26379 ft | 453 kts | 134° |
| 2026-04-30 21:08 | 17.87249 | -64.87719 | 26666 ft | 456 kts | 134° |
| 2026-04-30 21:08 | 17.85228 | -64.85137 | 26952 ft | 460 kts | 134° |
| 2026-04-30 21:08 | 17.83188 | -64.82531 | 27235 ft | 463 kts | 134° |
| 2026-04-30 21:08 | 17.81142 | -64.79912 | 27511 ft | 466 kts | 134° |
| 2026-04-30 21:09 | 17.79081 | -64.77272 | 27786 ft | 469 kts | 134° |
| 2026-04-30 21:09 | 17.77007 | -64.74622 | 28068 ft | 472 kts | 134° |
| 2026-04-30 21:09 | 17.74917 | -64.71955 | 28346 ft | 475 kts | 134° |
| 2026-04-30 21:09 | 17.72810 | -64.69275 | 28632 ft | 477 kts | 134° |
| 2026-04-30 21:10 | 17.70653 | -64.66612 | 28905 ft | 480 kts | 135° |
| 2026-04-30 21:10 | 17.68449 | -64.63964 | 29187 ft | 482 kts | 135° |
| 2026-04-30 21:10 | 17.66218 | -64.61328 | 29466 ft | 485 kts | 136° |
| 2026-04-30 21:10 | 17.63966 | -64.58678 | 29741 ft | 488 kts | 136° |
| 2026-04-30 21:11 | 17.61706 | -64.56009 | 30006 ft | 491 kts | 135° |
| 2026-04-30 21:11 | 17.59441 | -64.53311 | 30233 ft | 494 kts | 135° |
| 2026-04-30 21:11 | 17.57168 | -64.50587 | 30466 ft | 497 kts | 135° |
| 2026-04-30 21:11 | 17.54887 | -64.47848 | 30705 ft | 500 kts | 135° |
| 2026-04-30 21:12 | 17.52604 | -64.45106 | 31019 ft | 500 kts | 135° |
| 2026-04-30 21:12 | 17.50319 | -64.42364 | 31351 ft | 500 kts | 135° |
| 2026-04-30 21:12 | 17.48032 | -64.39621 | 31668 ft | 500 kts | 136° |
| 2026-04-30 21:12 | 17.45773 | -64.36915 | 31987 ft | 501 kts | 136° |
| 2026-04-30 21:13 | 17.43473 | -64.34165 | 32313 ft | 501 kts | 136° |
| 2026-04-30 21:13 | 17.41175 | -64.31422 | 32656 ft | 501 kts | 136° |
| 2026-04-30 21:13 | 17.38876 | -64.28684 | 32993 ft | 501 kts | 136° |
| 2026-04-30 21:13 | 17.36572 | -64.25944 | 33311 ft | 502 kts | 136° |
| 2026-04-30 21:14 | 17.34267 | -64.23203 | 33636 ft | 502 kts | 136° |
| 2026-04-30 21:14 | 17.31964 | -64.20460 | 34060 ft | 498 kts | 137° |
| 2026-04-30 21:14 | 17.29698 | -64.17753 | 34615 ft | 491 kts | 137° |
| 2026-04-30 21:14 | 17.27460 | -64.15080 | 34854 ft | 488 kts | 137° |
| 2026-04-30 21:15 | 17.23005 | -64.09772 | 34955 ft | 483 kts | 137° |
| 2026-04-30 21:15 | 17.18572 | -64.04503 | 34946 ft | 482 kts | 137° |
| 2026-04-30 21:16 | 17.14149 | -63.99249 | 34962 ft | 481 kts | 137° |
| 2026-04-30 21:16 | 17.09727 | -63.94001 | 34959 ft | 481 kts | 137° |
| 2026-04-30 21:17 | 17.05304 | -63.88748 | 34956 ft | 481 kts | 137° |
| 2026-04-30 21:17 | 17.00882 | -63.83498 | 34957 ft | 481 kts | 137° |
| 2026-04-30 21:18 | 16.96455 | -63.78245 | 34956 ft | 482 kts | 137° |
| 2026-04-30 21:18 | 16.92030 | -63.72991 | 34957 ft | 481 kts | 137° |
| 2026-04-30 21:19 | 16.87608 | -63.67749 | 34965 ft | 481 kts | 137° |
| 2026-04-30 21:19 | 16.83191 | -63.62522 | 34968 ft | 480 kts | 137° |
| 2026-04-30 21:20 | 16.78766 | -63.57297 | 34970 ft | 480 kts | 137° |
| 2026-04-30 21:20 | 16.75092 | -63.52964 | 34970 ft | 479 kts | 137° |
| 2026-04-30 21:21 | 16.70682 | -63.47745 | 34963 ft | 479 kts | 137° |
| 2026-04-30 21:22 | 16.64072 | -63.39938 | 34956 ft | 479 kts | 137° |
| 2026-04-30 21:23 | 16.55225 | -63.29520 | 34950 ft | 480 kts | 136° |
| 2026-04-30 21:23 | 16.48593 | -63.21713 | 34963 ft | 479 kts | 136° |
| 2026-04-30 21:24 | 16.44180 | -63.16518 | 34965 ft | 479 kts | 136° |
| 2026-04-30 21:24 | 16.39763 | -63.11326 | 34962 ft | 479 kts | 136° |
| 2026-04-30 21:25 | 16.33126 | -63.03536 | 34962 ft | 479 kts | 136° |
| 2026-04-30 21:26 | 16.26480 | -62.95760 | 34958 ft | 479 kts | 136° |
| 2026-04-30 21:27 | 16.19841 | -62.87980 | 34961 ft | 479 kts | 136° |
| 2026-04-30 21:27 | 16.15415 | -62.82791 | 34961 ft | 479 kts | 136° |
| 2026-04-30 21:28 | 16.08765 | -62.75017 | 34948 ft | 479 kts | 136° |
| 2026-04-30 21:29 | 16.02102 | -62.67250 | 34955 ft | 480 kts | 136° |
| 2026-04-30 21:30 | 15.90992 | -62.54290 | 34960 ft | 480 kts | 136° |
| 2026-04-30 21:31 | 15.79898 | -62.41381 | 34958 ft | 478 kts | 136° |
| 2026-04-30 21:32 | 15.73256 | -62.33655 | 34964 ft | 477 kts | 136° |
| 2026-04-30 21:32 | 15.68858 | -62.28558 | 34961 ft | 477 kts | 136° |
| 2026-04-30 21:33 | 15.62227 | -62.20871 | 34959 ft | 477 kts | 136° |
| 2026-04-30 21:34 | 15.57804 | -62.15744 | 34951 ft | 477 kts | 136° |
| 2026-04-30 21:34 | 15.51161 | -62.08057 | 34947 ft | 477 kts | 136° |
| 2026-04-30 21:35 | 15.46731 | -62.02928 | 34941 ft | 477 kts | 135° |
| 2026-04-30 21:35 | 15.42303 | -61.97801 | 34950 ft | 477 kts | 135° |
| 2026-04-30 21:36 | 15.37871 | -61.92682 | 34953 ft | 477 kts | 136° |
| 2026-04-30 21:37 | 15.28996 | -61.82460 | 34954 ft | 477 kts | 135° |
| 2026-04-30 21:37 | 15.24562 | -61.77353 | 34954 ft | 477 kts | 135° |
| 2026-04-30 21:38 | 15.20125 | -61.72242 | 34954 ft | 477 kts | 135° |
| 2026-04-30 21:38 | 15.15696 | -61.67136 | 34957 ft | 477 kts | 135° |
| 2026-04-30 21:39 | 15.11257 | -61.62031 | 34953 ft | 477 kts | 135° |
| 2026-04-30 21:39 | 15.06819 | -61.56933 | 34951 ft | 477 kts | 135° |
| 2026-04-30 21:40 | 15.02383 | -61.51840 | 34957 ft | 476 kts | 135° |
| 2026-04-30 21:40 | 14.97947 | -61.46751 | 34960 ft | 476 kts | 135° |
| 2026-04-30 21:41 | 14.93505 | -61.41662 | 34963 ft | 476 kts | 135° |
| 2026-04-30 21:41 | 14.89067 | -61.36576 | 34962 ft | 476 kts | 135° |
| 2026-04-30 21:42 | 14.84631 | -61.31492 | 34959 ft | 476 kts | 135° |
| 2026-04-30 21:42 | 14.80187 | -61.26404 | 34961 ft | 477 kts | 135° |
| 2026-04-30 21:43 | 14.75775 | -61.21354 | 34944 ft | 477 kts | 135° |
| 2026-04-30 21:43 | 14.71329 | -61.16268 | 34949 ft | 477 kts | 135° |
| 2026-04-30 21:44 | 14.66882 | -61.11196 | 34942 ft | 476 kts | 135° |
| 2026-04-30 21:44 | 14.62773 | -61.06512 | 34925 ft | 475 kts | 135° |
| 2026-04-30 21:45 | 14.58235 | -61.01567 | 34922 ft | 472 kts | 143° |
| 2026-04-30 21:45 | 14.53200 | -60.97240 | 34873 ft | 471 kts | 143° |
| 2026-04-30 21:46 | 14.50673 | -60.95073 | 34291 ft | 472 kts | 143° |
| 2026-04-30 21:46 | 14.48151 | -60.92905 | 33784 ft | 471 kts | 143° |
| 2026-04-30 21:46 | 14.45639 | -60.90742 | 33247 ft | 469 kts | 143° |
| 2026-04-30 21:46 | 14.43140 | -60.88586 | 32737 ft | 466 kts | 143° |
| 2026-04-30 21:47 | 14.40656 | -60.86446 | 32228 ft | 464 kts | 143° |
| 2026-04-30 21:47 | 14.38187 | -60.84324 | 31730 ft | 461 kts | 143° |
| 2026-04-30 21:47 | 14.35730 | -60.82215 | 31244 ft | 457 kts | 143° |
| 2026-04-30 21:47 | 14.33303 | -60.80136 | 30836 ft | 452 kts | 142° |
| 2026-04-30 21:48 | 14.30898 | -60.78077 | 30426 ft | 447 kts | 142° |
| 2026-04-30 21:48 | 14.28516 | -60.76037 | 30016 ft | 442 kts | 142° |
| 2026-04-30 21:48 | 14.26162 | -60.74023 | 29502 ft | 438 kts | 143° |
| 2026-04-30 21:48 | 14.23825 | -60.72024 | 29104 ft | 432 kts | 143° |
| 2026-04-30 21:49 | 14.21518 | -60.70049 | 28624 ft | 429 kts | 142° |
| 2026-04-30 21:49 | 14.19262 | -60.68114 | 28108 ft | 426 kts | 142° |
| 2026-04-30 21:49 | 14.16972 | -60.66149 | 27655 ft | 422 kts | 142° |
| 2026-04-30 21:49 | 14.14755 | -60.64248 | 27286 ft | 417 kts | 143° |
| 2026-04-30 21:50 | 14.12528 | -60.62341 | 26841 ft | 414 kts | 143° |
| 2026-04-30 21:50 | 14.10317 | -60.60448 | 26378 ft | 413 kts | 143° |
| 2026-04-30 21:50 | 14.08125 | -60.58570 | 25998 ft | 409 kts | 143° |
| 2026-04-30 21:50 | 14.05942 | -60.56700 | 25661 ft | 405 kts | 143° |
| 2026-04-30 21:51 | 14.03789 | -60.54855 | 25296 ft | 402 kts | 143° |
| 2026-04-30 21:51 | 14.01647 | -60.53022 | 24915 ft | 399 kts | 143° |
| 2026-04-30 21:51 | 13.99516 | -60.51202 | 24561 ft | 397 kts | 143° |
| 2026-04-30 21:51 | 13.97394 | -60.49394 | 24204 ft | 394 kts | 143° |
| 2026-04-30 21:52 | 13.95286 | -60.47600 | 23851 ft | 391 kts | 143° |
| 2026-04-30 21:52 | 13.93200 | -60.45822 | 23510 ft | 388 kts | 143° |
| 2026-04-30 21:52 | 13.91130 | -60.44053 | 23094 ft | 385 kts | 143° |
| 2026-04-30 21:52 | 13.89079 | -60.42300 | 22686 ft | 382 kts | 142° |
| 2026-04-30 21:53 | 13.87047 | -60.40563 | 22285 ft | 378 kts | 142° |
| 2026-04-30 21:53 | 13.85028 | -60.38841 | 21884 ft | 375 kts | 142° |
| 2026-04-30 21:53 | 13.83029 | -60.37137 | 21490 ft | 371 kts | 142° |
| 2026-04-30 21:53 | 13.81056 | -60.35454 | 21103 ft | 367 kts | 142° |
| 2026-04-30 21:54 | 13.79096 | -60.33783 | 20718 ft | 364 kts | 142° |
| 2026-04-30 21:54 | 13.77160 | -60.32131 | 20338 ft | 360 kts | 142° |
| 2026-04-30 21:54 | 13.75241 | -60.30493 | 19965 ft | 357 kts | 142° |
| 2026-04-30 21:54 | 13.73341 | -60.28873 | 19599 ft | 354 kts | 142° |
| 2026-04-30 21:55 | 13.71452 | -60.27266 | 19235 ft | 351 kts | 142° |
| 2026-04-30 21:55 | 13.69579 | -60.25671 | 18873 ft | 348 kts | 142° |
| 2026-04-30 21:55 | 13.67723 | -60.24090 | 18527 ft | 345 kts | 142° |
| 2026-04-30 21:55 | 13.65880 | -60.22521 | 18158 ft | 343 kts | 141° |
| 2026-04-30 21:56 | 13.64049 | -60.20965 | 17747 ft | 340 kts | 141° |
| 2026-04-30 21:56 | 13.62230 | -60.19423 | 17344 ft | 338 kts | 141° |
| 2026-04-30 21:56 | 13.60423 | -60.17890 | 16946 ft | 336 kts | 141° |
| 2026-04-30 21:56 | 13.58633 | -60.16367 | 16546 ft | 333 kts | 141° |
| 2026-04-30 21:57 | 13.56852 | -60.14849 | 16167 ft | 331 kts | 141° |
| 2026-04-30 21:57 | 13.55082 | -60.13342 | 15785 ft | 329 kts | 140° |
| 2026-04-30 21:57 | 13.53322 | -60.11844 | 15410 ft | 327 kts | 140° |
| 2026-04-30 21:57 | 13.51572 | -60.10357 | 15032 ft | 325 kts | 140° |
| 2026-04-30 21:58 | 13.49837 | -60.08885 | 14669 ft | 323 kts | 140° |
| 2026-04-30 21:58 | 13.48108 | -60.07420 | 14300 ft | 321 kts | 140° |
| 2026-04-30 21:58 | 13.46410 | -60.05982 | 13946 ft | 319 kts | 140° |
| 2026-04-30 21:58 | 13.44703 | -60.04532 | 13530 ft | 319 kts | 140° |
| 2026-04-30 21:59 | 13.42972 | -60.03059 | 13063 ft | 319 kts | 140° |
| 2026-04-30 21:59 | 13.41266 | -60.01605 | 12590 ft | 319 kts | 140° |
| 2026-04-30 21:59 | 13.39576 | -60.00171 | 12131 ft | 319 kts | 140° |
| 2026-04-30 22:00 | 13.36148 | -59.97263 | 11224 ft | 319 kts | 139° |
| 2026-04-30 22:00 | 13.32833 | -59.94451 | 10355 ft | 298 kts | 139° |
| 2026-04-30 22:00 | 13.31263 | -59.93121 | 9963 ft | 287 kts | 139° |
| 2026-04-30 22:01 | 13.29724 | -59.91819 | 9549 ft | 278 kts | 139° |
| 2026-04-30 22:01 | 13.28271 | -59.90590 | 9127 ft | 271 kts | 139° |
| 2026-04-30 22:01 | 13.26833 | -59.89371 | 8711 ft | 266 kts | 139° |
| 2026-04-30 22:01 | 13.25417 | -59.88171 | 8261 ft | 263 kts | 139° |
| 2026-04-30 22:02 | 13.23991 | -59.86964 | 7833 ft | 268 kts | 140° |
| 2026-04-30 22:02 | 13.22542 | -59.85734 | 7401 ft | 271 kts | 139° |
| 2026-04-30 22:02 | 13.21103 | -59.84514 | 6979 ft | 265 kts | 139° |
| 2026-04-30 22:02 | 13.19695 | -59.83321 | 6557 ft | 260 kts | 140° |
| 2026-04-30 22:03 | 13.18314 | -59.82150 | 6176 ft | 253 kts | 140° |
| 2026-04-30 22:03 | 13.16980 | -59.81021 | 5838 ft | 244 kts | 139° |
| 2026-04-30 22:03 | 13.15689 | -59.79929 | 5494 ft | 236 kts | 139° |
| 2026-04-30 22:03 | 13.14438 | -59.78872 | 5156 ft | 230 kts | 139° |
| 2026-04-30 22:04 | 13.13219 | -59.77843 | 4816 ft | 224 kts | 139° |
| 2026-04-30 22:04 | 13.12036 | -59.76842 | 4473 ft | 217 kts | 139° |
| 2026-04-30 22:04 | 13.09774 | -59.74927 | 3776 ft | 204 kts | 140° |
| 2026-04-30 22:05 | 13.09057 | -59.74319 | 3580 ft | 199 kts | 139° |
| 2026-04-30 22:05 | 13.08000 | -59.73424 | 3256 ft | 195 kts | 139° |
| 2026-04-30 22:05 | 13.06964 | -59.72548 | 3033 ft | 192 kts | 139° |
| 2026-04-30 22:05 | 13.05931 | -59.71673 | 3016 ft | 192 kts | 139° |
| 2026-04-30 22:06 | 13.04902 | -59.70803 | 3016 ft | 190 kts | 139° |
| 2026-04-30 22:06 | 13.03149 | -59.68904 | 2889 ft | 183 kts | 111° |
| 2026-04-30 22:06 | 13.02964 | -59.67629 | 2763 ft | 183 kts | 85° |
| 2026-04-30 22:07 | 13.03247 | -59.66360 | 2644 ft | 183 kts | 77° |
| 2026-04-30 22:07 | 13.03558 | -59.65109 | 2495 ft | 176 kts | 77° |
| 2026-04-30 22:07 | 13.03847 | -59.63939 | 2351 ft | 163 kts | 78° |
| 2026-04-30 22:07 | 13.04115 | -59.62853 | 2210 ft | 151 kts | 77° |
| 2026-04-30 22:08 | 13.04365 | -59.61839 | 2117 ft | 144 kts | 77° |
| 2026-04-30 22:08 | 13.04607 | -59.60850 | 2054 ft | 142 kts | 78° |
| 2026-04-30 22:08 | 13.04847 | -59.59871 | 1951 ft | 142 kts | 78° |
| 2026-04-30 22:08 | 13.05082 | -59.58909 | 1746 ft | 139 kts | 77° |
| 2026-04-30 22:09 | 13.05316 | -59.57955 | 1559 ft | 138 kts | 77° |
| 2026-04-30 22:09 | 13.05548 | -59.57010 | 1376 ft | 136 kts | 77° |
| 2026-04-30 22:09 | 13.05780 | -59.56062 | 1202 ft | 137 kts | 77° |
| 2026-04-30 22:09 | 13.06014 | -59.55112 | 1017 ft | 139 kts | 78° |
| 2026-04-30 22:10 | 13.06248 | -59.54161 | 855 ft | 138 kts | 77° |
| 2026-04-30 22:10 | 13.06481 | -59.53213 | 694 ft | 137 kts | 79° |
| 2026-04-30 22:10 | 13.06718 | -59.52251 | 514 ft | 140 kts | 81° |
| 2026-04-30 22:10 | 13.06962 | -59.51282 | 298 ft | 141 kts | 79° |
| 2026-04-30 22:11 | 13.07410 | -59.49426 | 173 ft | 116 kts | 78° |
| 2026-04-30 22:11 | 13.07535 | -59.48895 | 173 ft | 33 kts | 70° |
| 2026-04-30 22:11 | 13.07562 | -59.48806 | 174 ft | 21 kts | 74° |
| 2026-04-30 22:12 | 13.07618 | -59.48586 | 172 ft | 37 kts | 77° |
| 2026-04-30 22:12 | 13.07667 | -59.48394 | 171 ft | 17 kts | 70° |
| 2026-04-30 22:12 | 13.07773 | -59.48353 | 171 ft | 14 kts | 347° |
| 2026-04-30 22:12 | 13.07821 | -59.48368 | 172 ft | 5 kts | 344° |
| 2026-04-30 22:13 | 13.07858 | -59.48397 | 172 ft | 10 kts | 290° |
| 2026-04-30 22:13 | 13.07903 | -59.48421 | 172 ft | 5 kts | 345° |
| 2026-04-30 22:13 | 13.07940 | -59.48430 | 172 ft | 6 kts | 345° |
| 2026-04-30 22:13 | 13.07957 | -59.48435 | 172 ft | 0 kts | 346° |